sensor_id;sensor_type;location;lat;lon;timestamp;pressure;altitude;pressure_sealevel;temperature
79495;BMP180;68951;53.130;18.104;2023-06-22T00:01:19;101301.40;;;
79495;BMP180;68951;53.130;18.104;2023-06-22T00:03:46;101304.60;;;
79495;BMP180;68951;53.130;18.104;2023-06-22T00:06:13;101306.80;;;
79495;BMP180;68951;53.130;18.104;2023-06-22T00:08:40;101315.00;;;
79495;BMP180;68951;53.130;18.104;2023-06-22T00:11:07;101320.60;;;
79495;BMP180;68951;53.130;18.104;2023-06-22T00:13:34;101321.60;;;
79495;BMP180;68951;53.130;18.104;2023-06-22T00:16:01;101328.60;;;
79495;BMP180;68951;53.130;18.104;2023-06-22T00:18:28;101326.20;;;
79495;BMP180;68951;53.130;18.104;2023-06-22T00:20:57;101327.00;;;
79495;BMP180;68951;53.130;18.104;2023-06-22T00:23:27;101326.60;;;
79495;BMP180;68951;53.130;18.104;2023-06-22T00:25:54;101326.00;;;
79495;BMP180;68951;53.130;18.104;2023-06-22T00:28:20;101330.20;;;
79495;BMP180;68951;53.130;18.104;2023-06-22T00:30:49;101331.80;;;
79495;BMP180;68951;53.130;18.104;2023-06-22T00:33:16;101331.20;;;
79495;BMP180;68951;53.130;18.104;2023-06-22T00:35:43;101330.40;;;
79495;BMP180;68951;53.130;18.104;2023-06-22T00:38:10;101333.60;;;
79495;BMP180;68951;53.130;18.104;2023-06-22T00:40:37;101333.20;;;
79495;BMP180;68951;53.130;18.104;2023-06-22T00:43:05;101336.80;;;
79495;BMP180;68951;53.130;18.104;2023-06-22T00:45:32;101336.60;;;
79495;BMP180;68951;53.130;18.104;2023-06-22T00:47:59;101338.00;;;
79495;BMP180;68951;53.130;18.104;2023-06-22T00:50:30;101345.80;;;
79495;BMP180;68951;53.130;18.104;2023-06-22T00:53:07;101343.80;;;
79495;BMP180;68951;53.130;18.104;2023-06-22T00:55:42;101334.40;;;
79495;BMP180;68951;53.130;18.104;2023-06-22T00:58:14;101339.60;;;
79495;BMP180;68951;53.130;18.104;2023-06-22T01:00:41;101337.80;;;
79495;BMP180;68951;53.130;18.104;2023-06-22T01:03:08;101337.40;;;
79495;BMP180;68951;53.130;18.104;2023-06-22T01:05:36;101341.40;;;
79495;BMP180;68951;53.130;18.104;2023-06-22T01:11:16;101338.20;;;
79495;BMP180;68951;53.130;18.104;2023-06-22T01:14:00;101333.00;;;
79495;BMP180;68951;53.130;18.104;2023-06-22T01:16:33;101332.60;;;
79495;BMP180;68951;53.130;18.104;2023-06-22T01:19:28;101340.00;;;
79495;BMP180;68951;53.130;18.104;2023-06-22T01:21:57;101342.60;;;
79495;BMP180;68951;53.130;18.104;2023-06-22T01:24:41;101341.20;;;
79495;BMP180;68951;53.130;18.104;2023-06-22T01:29:59;101340.60;;;
79495;BMP180;68951;53.130;18.104;2023-06-22T01:32:33;101339.00;;;
79495;BMP180;68951;53.130;18.104;2023-06-22T01:35:04;101341.40;;;
79495;BMP180;68951;53.130;18.104;2023-06-22T01:37:34;101334.00;;;
79495;BMP180;68951;53.130;18.104;2023-06-22T01:40:02;101339.20;;;
79495;BMP180;68951;53.130;18.104;2023-06-22T01:42:32;101338.80;;;
79495;BMP180;68951;53.130;18.104;2023-06-22T01:44:59;101336.20;;;
79495;BMP180;68951;53.130;18.104;2023-06-22T01:47:27;101340.40;;;
79495;BMP180;68951;53.130;18.104;2023-06-22T01:49:55;101339.20;;;
79495;BMP180;68951;53.130;18.104;2023-06-22T01:52:22;101335.40;;;
79495;BMP180;68951;53.130;18.104;2023-06-22T01:54:48;101334.40;;;
79495;BMP180;68951;53.130;18.104;2023-06-22T01:57:16;101334.00;;;
79495;BMP180;68951;53.130;18.104;2023-06-22T02:00:09;101330.00;;;
79495;BMP180;68951;53.130;18.104;2023-06-22T02:02:52;101330.80;;;
79495;BMP180;68951;53.130;18.104;2023-06-22T02:05:19;101337.40;;;
79495;BMP180;68951;53.130;18.104;2023-06-22T02:08:13;101340.80;;;
79495;BMP180;68951;53.130;18.104;2023-06-22T02:10:45;101337.40;;;
79495;BMP180;68951;53.130;18.104;2023-06-22T02:13:14;101334.20;;;
79495;BMP180;68951;53.130;18.104;2023-06-22T02:15:42;101332.60;;;
79495;BMP180;68951;53.130;18.104;2023-06-22T02:18:09;101330.00;;;
79495;BMP180;68951;53.130;18.104;2023-06-22T02:20:39;101333.00;;;
79495;BMP180;68951;53.130;18.104;2023-06-22T02:23:07;101333.60;;;
79495;BMP180;68951;53.130;18.104;2023-06-22T02:25:35;101341.00;;;
79495;BMP180;68951;53.130;18.104;2023-06-22T02:28:02;101348.60;;;
79495;BMP180;68951;53.130;18.104;2023-06-22T02:30:31;101352.40;;;
79495;BMP180;68951;53.130;18.104;2023-06-22T02:32:58;101358.80;;;
79495;BMP180;68951;53.130;18.104;2023-06-22T02:35:27;101363.40;;;
79495;BMP180;68951;53.130;18.104;2023-06-22T02:37:59;101368.00;;;
79495;BMP180;68951;53.130;18.104;2023-06-22T02:40:28;101365.80;;;
79495;BMP180;68951;53.130;18.104;2023-06-22T02:42:58;101367.80;;;
79495;BMP180;68951;53.130;18.104;2023-06-22T02:45:28;101371.20;;;
79495;BMP180;68951;53.130;18.104;2023-06-22T02:47:56;101372.80;;;
79495;BMP180;68951;53.130;18.104;2023-06-22T02:50:23;101373.00;;;
79495;BMP180;68951;53.130;18.104;2023-06-22T02:52:50;101370.80;;;
79495;BMP180;68951;53.130;18.104;2023-06-22T02:55:17;101374.00;;;
79495;BMP180;68951;53.130;18.104;2023-06-22T02:57:44;101371.20;;;
79495;BMP180;68951;53.130;18.104;2023-06-22T03:00:14;101375.60;;;
79495;BMP180;68951;53.130;18.104;2023-06-22T03:02:45;101377.40;;;
79495;BMP180;68951;53.130;18.104;2023-06-22T03:05:14;101379.60;;;
79495;BMP180;68951;53.130;18.104;2023-06-22T03:07:42;101379.80;;;
79495;BMP180;68951;53.130;18.104;2023-06-22T03:10:10;101385.60;;;
79495;BMP180;68951;53.130;18.104;2023-06-22T03:12:38;101384.40;;;
79495;BMP180;68951;53.130;18.104;2023-06-22T03:15:14;101384.60;;;
79495;BMP180;68951;53.130;18.104;2023-06-22T03:17:41;101392.60;;;
79495;BMP180;68951;53.130;18.104;2023-06-22T03:20:09;101394.60;;;
79495;BMP180;68951;53.130;18.104;2023-06-22T03:22:41;101398.40;;;
79495;BMP180;68951;53.130;18.104;2023-06-22T03:25:09;101403.20;;;
79495;BMP180;68951;53.130;18.104;2023-06-22T03:27:37;101409.80;;;
79495;BMP180;68951;53.130;18.104;2023-06-22T03:30:06;101403.20;;;
79495;BMP180;68951;53.130;18.104;2023-06-22T03:32:36;101403.20;;;
79495;BMP180;68951;53.130;18.104;2023-06-22T03:35:03;101407.60;;;
79495;BMP180;68951;53.130;18.104;2023-06-22T03:37:30;101404.20;;;
79495;BMP180;68951;53.130;18.104;2023-06-22T03:39:56;101403.40;;;
79495;BMP180;68951;53.130;18.104;2023-06-22T03:42:23;101405.80;;;
79495;BMP180;68951;53.130;18.104;2023-06-22T03:44:50;101407.60;;;
79495;BMP180;68951;53.130;18.104;2023-06-22T03:47:17;101418.00;;;
79495;BMP180;68951;53.130;18.104;2023-06-22T03:49:44;101424.60;;;
79495;BMP180;68951;53.130;18.104;2023-06-22T03:52:11;101428.80;;;
79495;BMP180;68951;53.130;18.104;2023-06-22T03:54:37;101431.40;;;
79495;BMP180;68951;53.130;18.104;2023-06-22T03:57:04;101435.00;;;
79495;BMP180;68951;53.130;18.104;2023-06-22T03:59:32;101432.80;;;
79495;BMP180;68951;53.130;18.104;2023-06-22T04:01:59;101428.20;;;
79495;BMP180;68951;53.130;18.104;2023-06-22T04:04:26;101425.40;;;
79495;BMP180;68951;53.130;18.104;2023-06-22T04:06:52;101425.60;;;
79495;BMP180;68951;53.130;18.104;2023-06-22T04:09:19;101424.60;;;
79495;BMP180;68951;53.130;18.104;2023-06-22T04:11:48;101416.20;;;
79495;BMP180;68951;53.130;18.104;2023-06-22T04:14:15;101424.20;;;
79495;BMP180;68951;53.130;18.104;2023-06-22T04:16:41;101427.60;;;
79495;BMP180;68951;53.130;18.104;2023-06-22T04:19:08;101432.00;;;
79495;BMP180;68951;53.130;18.104;2023-06-22T04:21:40;101430.20;;;
79495;BMP180;68951;53.130;18.104;2023-06-22T04:24:07;101424.00;;;
79495;BMP180;68951;53.130;18.104;2023-06-22T04:26:34;101428.40;;;
79495;BMP180;68951;53.130;18.104;2023-06-22T04:29:04;101435.00;;;
79495;BMP180;68951;53.130;18.104;2023-06-22T04:31:32;101436.40;;;
79495;BMP180;68951;53.130;18.104;2023-06-22T04:34:04;101429.20;;;
79495;BMP180;68951;53.130;18.104;2023-06-22T04:36:39;101425.20;;;
79495;BMP180;68951;53.130;18.104;2023-06-22T04:39:10;101422.60;;;
79495;BMP180;68951;53.130;18.104;2023-06-22T04:41:39;101422.20;;;
79495;BMP180;68951;53.130;18.104;2023-06-22T04:44:17;101418.40;;;
79495;BMP180;68951;53.130;18.104;2023-06-22T04:46:56;101417.80;;;
79495;BMP180;68951;53.130;18.104;2023-06-22T04:49:36;101420.80;;;
79495;BMP180;68951;53.130;18.104;2023-06-22T04:52:09;101422.20;;;
79495;BMP180;68951;53.130;18.104;2023-06-22T04:54:38;101423.80;;;
79495;BMP180;68951;53.130;18.104;2023-06-22T04:57:07;101426.60;;;
79495;BMP180;68951;53.130;18.104;2023-06-22T04:59:38;101427.20;;;
79495;BMP180;68951;53.130;18.104;2023-06-22T05:02:08;101437.40;;;
79495;BMP180;68951;53.130;18.104;2023-06-22T05:04:36;101439.00;;;
79495;BMP180;68951;53.130;18.104;2023-06-22T05:07:05;101440.40;;;
79495;BMP180;68951;53.130;18.104;2023-06-22T05:09:32;101443.60;;;
79495;BMP180;68951;53.130;18.104;2023-06-22T05:12:00;101437.80;;;
79495;BMP180;68951;53.130;18.104;2023-06-22T05:14:29;101443.60;;;
79495;BMP180;68951;53.130;18.104;2023-06-22T05:16:57;101447.80;;;
79495;BMP180;68951;53.130;18.104;2023-06-22T05:19:30;101452.80;;;
79495;BMP180;68951;53.130;18.104;2023-06-22T05:22:00;101459.80;;;
79495;BMP180;68951;53.130;18.104;2023-06-22T05:24:26;101458.80;;;
79495;BMP180;68951;53.130;18.104;2023-06-22T05:26:53;101453.40;;;
79495;BMP180;68951;53.130;18.104;2023-06-22T05:29:20;101456.00;;;
79495;BMP180;68951;53.130;18.104;2023-06-22T05:31:49;101456.80;;;
79495;BMP180;68951;53.130;18.104;2023-06-22T05:34:16;101463.20;;;
79495;BMP180;68951;53.130;18.104;2023-06-22T05:36:43;101464.60;;;
79495;BMP180;68951;53.130;18.104;2023-06-22T05:39:14;101473.60;;;
79495;BMP180;68951;53.130;18.104;2023-06-22T05:41:42;101471.00;;;
79495;BMP180;68951;53.130;18.104;2023-06-22T05:44:09;101464.60;;;
79495;BMP180;68951;53.130;18.104;2023-06-22T05:46:37;101472.40;;;
79495;BMP180;68951;53.130;18.104;2023-06-22T05:49:03;101477.00;;;
79495;BMP180;68951;53.130;18.104;2023-06-22T05:51:30;101471.80;;;
79495;BMP180;68951;53.130;18.104;2023-06-22T05:53:58;101463.20;;;
79495;BMP180;68951;53.130;18.104;2023-06-22T05:56:25;101462.80;;;
79495;BMP180;68951;53.130;18.104;2023-06-22T05:58:51;101460.80;;;
79495;BMP180;68951;53.130;18.104;2023-06-22T06:01:18;101458.40;;;
79495;BMP180;68951;53.130;18.104;2023-06-22T06:03:45;101456.40;;;
79495;BMP180;68951;53.130;18.104;2023-06-22T06:06:12;101457.40;;;
79495;BMP180;68951;53.130;18.104;2023-06-22T06:08:39;101458.60;;;
79495;BMP180;68951;53.130;18.104;2023-06-22T06:11:06;101455.00;;;
79495;BMP180;68951;53.130;18.104;2023-06-22T06:13:33;101455.60;;;
79495;BMP180;68951;53.130;18.104;2023-06-22T06:15:59;101456.80;;;
79495;BMP180;68951;53.130;18.104;2023-06-22T06:18:27;101458.00;;;
79495;BMP180;68951;53.130;18.104;2023-06-22T06:20:54;101455.80;;;
79495;BMP180;68951;53.130;18.104;2023-06-22T06:23:21;101454.00;;;
79495;BMP180;68951;53.130;18.104;2023-06-22T06:25:48;101450.80;;;
79495;BMP180;68951;53.130;18.104;2023-06-22T06:28:14;101453.20;;;
79495;BMP180;68951;53.130;18.104;2023-06-22T06:30:41;101459.20;;;
79495;BMP180;68951;53.130;18.104;2023-06-22T06:33:09;101468.00;;;
79495;BMP180;68951;53.130;18.104;2023-06-22T06:35:35;101471.40;;;
79495;BMP180;68951;53.130;18.104;2023-06-22T06:38:04;101468.60;;;
79495;BMP180;68951;53.130;18.104;2023-06-22T06:40:31;101476.80;;;
79495;BMP180;68951;53.130;18.104;2023-06-22T06:42:58;101469.80;;;
79495;BMP180;68951;53.130;18.104;2023-06-22T06:45:25;101466.00;;;
79495;BMP180;68951;53.130;18.104;2023-06-22T06:47:53;101467.00;;;
79495;BMP180;68951;53.130;18.104;2023-06-22T06:50:20;101465.00;;;
79495;BMP180;68951;53.130;18.104;2023-06-22T06:52:47;101463.00;;;
79495;BMP180;68951;53.130;18.104;2023-06-22T06:55:16;101463.80;;;
79495;BMP180;68951;53.130;18.104;2023-06-22T06:57:43;101450.60;;;
79495;BMP180;68951;53.130;18.104;2023-06-22T07:00:12;101456.40;;;
79495;BMP180;68951;53.130;18.104;2023-06-22T07:02:43;101454.60;;;
79495;BMP180;68951;53.130;18.104;2023-06-22T07:05:12;101455.20;;;
79495;BMP180;68951;53.130;18.104;2023-06-22T07:07:39;101459.00;;;
79495;BMP180;68951;53.130;18.104;2023-06-22T07:10:06;101463.20;;;
79495;BMP180;68951;53.130;18.104;2023-06-22T07:12:34;101455.60;;;
79495;BMP180;68951;53.130;18.104;2023-06-22T07:15:04;101457.60;;;
79495;BMP180;68951;53.130;18.104;2023-06-22T07:17:31;101459.40;;;
79495;BMP180;68951;53.130;18.104;2023-06-22T07:19:58;101466.40;;;
79495;BMP180;68951;53.130;18.104;2023-06-22T07:22:25;101471.00;;;
79495;BMP180;68951;53.130;18.104;2023-06-22T07:24:52;101476.40;;;
79495;BMP180;68951;53.130;18.104;2023-06-22T07:27:18;101469.60;;;
79495;BMP180;68951;53.130;18.104;2023-06-22T07:29:46;101470.00;;;
79495;BMP180;68951;53.130;18.104;2023-06-22T07:32:13;101468.60;;;
79495;BMP180;68951;53.130;18.104;2023-06-22T07:34:40;101474.80;;;
79495;BMP180;68951;53.130;18.104;2023-06-22T07:37:07;101476.00;;;
79495;BMP180;68951;53.130;18.104;2023-06-22T07:39:34;101479.20;;;
79495;BMP180;68951;53.130;18.104;2023-06-22T07:42:01;101480.40;;;
79495;BMP180;68951;53.130;18.104;2023-06-22T07:44:28;101485.20;;;
79495;BMP180;68951;53.130;18.104;2023-06-22T07:46:55;101485.60;;;
79495;BMP180;68951;53.130;18.104;2023-06-22T07:49:21;101493.60;;;
79495;BMP180;68951;53.130;18.104;2023-06-22T07:51:48;101492.60;;;
79495;BMP180;68951;53.130;18.104;2023-06-22T07:54:15;101490.40;;;
79495;BMP180;68951;53.130;18.104;2023-06-22T07:56:43;101493.00;;;
79495;BMP180;68951;53.130;18.104;2023-06-22T07:59:09;101486.20;;;
79495;BMP180;68951;53.130;18.104;2023-06-22T08:01:36;101488.80;;;
79495;BMP180;68951;53.130;18.104;2023-06-22T08:04:03;101487.20;;;
79495;BMP180;68951;53.130;18.104;2023-06-22T08:06:30;101482.00;;;
79495;BMP180;68951;53.130;18.104;2023-06-22T08:08:57;101486.00;;;
79495;BMP180;68951;53.130;18.104;2023-06-22T08:11:25;101493.00;;;
79495;BMP180;68951;53.130;18.104;2023-06-22T08:13:52;101494.40;;;
79495;BMP180;68951;53.130;18.104;2023-06-22T08:16:19;101498.60;;;
79495;BMP180;68951;53.130;18.104;2023-06-22T08:18:46;101506.00;;;
79495;BMP180;68951;53.130;18.104;2023-06-22T08:21:12;101505.00;;;
79495;BMP180;68951;53.130;18.104;2023-06-22T08:23:39;101508.00;;;
79495;BMP180;68951;53.130;18.104;2023-06-22T08:26:06;101510.40;;;
79495;BMP180;68951;53.130;18.104;2023-06-22T08:28:33;101507.80;;;
79495;BMP180;68951;53.130;18.104;2023-06-22T08:31:01;101502.80;;;
79495;BMP180;68951;53.130;18.104;2023-06-22T08:33:28;101495.80;;;
79495;BMP180;68951;53.130;18.104;2023-06-22T08:35:58;101495.80;;;
79495;BMP180;68951;53.130;18.104;2023-06-22T08:38:25;101496.40;;;
79495;BMP180;68951;53.130;18.104;2023-06-22T08:40:52;101499.40;;;
79495;BMP180;68951;53.130;18.104;2023-06-22T08:43:19;101503.20;;;
79495;BMP180;68951;53.130;18.104;2023-06-22T08:45:45;101506.60;;;
79495;BMP180;68951;53.130;18.104;2023-06-22T08:48:12;101507.20;;;
79495;BMP180;68951;53.130;18.104;2023-06-22T08:50:39;101505.40;;;
79495;BMP180;68951;53.130;18.104;2023-06-22T08:53:07;101498.20;;;
79495;BMP180;68951;53.130;18.104;2023-06-22T08:55:34;101499.80;;;
79495;BMP180;68951;53.130;18.104;2023-06-22T08:58:01;101499.20;;;
79495;BMP180;68951;53.130;18.104;2023-06-22T09:00:27;101495.40;;;
79495;BMP180;68951;53.130;18.104;2023-06-22T09:02:55;101493.60;;;
79495;BMP180;68951;53.130;18.104;2023-06-22T09:05:25;101501.40;;;
79495;BMP180;68951;53.130;18.104;2023-06-22T09:07:56;101503.60;;;
79495;BMP180;68951;53.130;18.104;2023-06-22T09:10:26;101500.00;;;
79495;BMP180;68951;53.130;18.104;2023-06-22T09:12:53;101499.80;;;
79495;BMP180;68951;53.130;18.104;2023-06-22T09:15:20;101501.60;;;
79495;BMP180;68951;53.130;18.104;2023-06-22T09:17:47;101496.80;;;
79495;BMP180;68951;53.130;18.104;2023-06-22T09:20:14;101494.40;;;
79495;BMP180;68951;53.130;18.104;2023-06-22T09:22:42;101491.00;;;
79495;BMP180;68951;53.130;18.104;2023-06-22T09:25:09;101490.20;;;
79495;BMP180;68951;53.130;18.104;2023-06-22T09:27:36;101480.80;;;
79495;BMP180;68951;53.130;18.104;2023-06-22T09:30:04;101484.60;;;
79495;BMP180;68951;53.130;18.104;2023-06-22T09:32:31;101478.20;;;
79495;BMP180;68951;53.130;18.104;2023-06-22T09:34:57;101472.60;;;
79495;BMP180;68951;53.130;18.104;2023-06-22T09:37:24;101463.60;;;
79495;BMP180;68951;53.130;18.104;2023-06-22T09:39:51;101471.00;;;
79495;BMP180;68951;53.130;18.104;2023-06-22T09:42:18;101475.40;;;
79495;BMP180;68951;53.130;18.104;2023-06-22T09:44:44;101468.80;;;
79495;BMP180;68951;53.130;18.104;2023-06-22T09:47:11;101477.00;;;
79495;BMP180;68951;53.130;18.104;2023-06-22T09:49:38;101471.20;;;
79495;BMP180;68951;53.130;18.104;2023-06-22T09:52:05;101475.80;;;
79495;BMP180;68951;53.130;18.104;2023-06-22T09:54:32;101478.00;;;
79495;BMP180;68951;53.130;18.104;2023-06-22T09:56:59;101481.20;;;
79495;BMP180;68951;53.130;18.104;2023-06-22T09:59:26;101480.40;;;
79495;BMP180;68951;53.130;18.104;2023-06-22T10:01:53;101474.00;;;
79495;BMP180;68951;53.130;18.104;2023-06-22T10:04:19;101478.20;;;
79495;BMP180;68951;53.130;18.104;2023-06-22T10:06:46;101477.80;;;
79495;BMP180;68951;53.130;18.104;2023-06-22T10:09:14;101485.20;;;
79495;BMP180;68951;53.130;18.104;2023-06-22T10:11:40;101486.00;;;
79495;BMP180;68951;53.130;18.104;2023-06-22T10:14:07;101475.60;;;
79495;BMP180;68951;53.130;18.104;2023-06-22T10:16:36;101484.00;;;
79495;BMP180;68951;53.130;18.104;2023-06-22T10:19:03;101476.20;;;
79495;BMP180;68951;53.130;18.104;2023-06-22T10:21:30;101480.80;;;
79495;BMP180;68951;53.130;18.104;2023-06-22T10:23:57;101476.40;;;
79495;BMP180;68951;53.130;18.104;2023-06-22T10:26:23;101482.40;;;
79495;BMP180;68951;53.130;18.104;2023-06-22T10:28:50;101484.60;;;
79495;BMP180;68951;53.130;18.104;2023-06-22T10:31:17;101478.20;;;
79495;BMP180;68951;53.130;18.104;2023-06-22T10:33:44;101467.60;;;
79495;BMP180;68951;53.130;18.104;2023-06-22T10:36:11;101464.00;;;
79495;BMP180;68951;53.130;18.104;2023-06-22T10:38:38;101469.60;;;
79495;BMP180;68951;53.130;18.104;2023-06-22T10:41:05;101470.40;;;
79495;BMP180;68951;53.130;18.104;2023-06-22T10:43:32;101478.20;;;
79495;BMP180;68951;53.130;18.104;2023-06-22T10:45:59;101475.60;;;
79495;BMP180;68951;53.130;18.104;2023-06-22T10:48:26;101469.20;;;
79495;BMP180;68951;53.130;18.104;2023-06-22T10:50:52;101475.00;;;
79495;BMP180;68951;53.130;18.104;2023-06-22T10:53:20;101472.40;;;
79495;BMP180;68951;53.130;18.104;2023-06-22T10:55:48;101465.40;;;
79495;BMP180;68951;53.130;18.104;2023-06-22T10:58:15;101462.80;;;
79495;BMP180;68951;53.130;18.104;2023-06-22T11:00:41;101458.60;;;
79495;BMP180;68951;53.130;18.104;2023-06-22T11:03:08;101459.60;;;
79495;BMP180;68951;53.130;18.104;2023-06-22T11:05:35;101455.00;;;
79495;BMP180;68951;53.130;18.104;2023-06-22T11:08:02;101452.40;;;
79495;BMP180;68951;53.130;18.104;2023-06-22T11:10:29;101465.00;;;
79495;BMP180;68951;53.130;18.104;2023-06-22T11:12:56;101464.60;;;
79495;BMP180;68951;53.130;18.104;2023-06-22T11:15:25;101467.20;;;
79495;BMP180;68951;53.130;18.104;2023-06-22T11:17:52;101466.00;;;
79495;BMP180;68951;53.130;18.104;2023-06-22T11:20:18;101470.20;;;
79495;BMP180;68951;53.130;18.104;2023-06-22T11:22:46;101471.00;;;
79495;BMP180;68951;53.130;18.104;2023-06-22T11:25:13;101462.60;;;
79495;BMP180;68951;53.130;18.104;2023-06-22T11:27:40;101464.60;;;
79495;BMP180;68951;53.130;18.104;2023-06-22T11:30:07;101465.80;;;
79495;BMP180;68951;53.130;18.104;2023-06-22T11:32:35;101462.60;;;
79495;BMP180;68951;53.130;18.104;2023-06-22T11:35:02;101458.80;;;
79495;BMP180;68951;53.130;18.104;2023-06-22T11:37:29;101466.60;;;
79495;BMP180;68951;53.130;18.104;2023-06-22T11:39:55;101472.60;;;
79495;BMP180;68951;53.130;18.104;2023-06-22T11:42:22;101463.00;;;
79495;BMP180;68951;53.130;18.104;2023-06-22T11:44:50;101471.00;;;
79495;BMP180;68951;53.130;18.104;2023-06-22T11:47:16;101460.20;;;
79495;BMP180;68951;53.130;18.104;2023-06-22T11:49:43;101469.20;;;
79495;BMP180;68951;53.130;18.104;2023-06-22T11:52:10;101468.80;;;
79495;BMP180;68951;53.130;18.104;2023-06-22T11:54:37;101461.80;;;
79495;BMP180;68951;53.130;18.104;2023-06-22T11:57:05;101456.00;;;
79495;BMP180;68951;53.130;18.104;2023-06-22T11:59:31;101467.00;;;
79495;BMP180;68951;53.130;18.104;2023-06-22T12:01:59;101462.40;;;
79495;BMP180;68951;53.130;18.104;2023-06-22T12:04:26;101466.80;;;
79495;BMP180;68951;53.130;18.104;2023-06-22T12:06:53;101457.60;;;
79495;BMP180;68951;53.130;18.104;2023-06-22T12:09:20;101457.20;;;
79495;BMP180;68951;53.130;18.104;2023-06-22T12:11:46;101458.60;;;
79495;BMP180;68951;53.130;18.104;2023-06-22T12:14:13;101450.40;;;
79495;BMP180;68951;53.130;18.104;2023-06-22T12:16:40;101456.40;;;
79495;BMP180;68951;53.130;18.104;2023-06-22T12:19:07;101446.80;;;
79495;BMP180;68951;53.130;18.104;2023-06-22T12:21:34;101437.60;;;
79495;BMP180;68951;53.130;18.104;2023-06-22T12:24:00;101441.00;;;
79495;BMP180;68951;53.130;18.104;2023-06-22T12:26:27;101438.40;;;
79495;BMP180;68951;53.130;18.104;2023-06-22T12:28:54;101436.20;;;
79495;BMP180;68951;53.130;18.104;2023-06-22T12:31:21;101434.60;;;
79495;BMP180;68951;53.130;18.104;2023-06-22T12:33:47;101438.00;;;
79495;BMP180;68951;53.130;18.104;2023-06-22T12:36:14;101426.20;;;
79495;BMP180;68951;53.130;18.104;2023-06-22T12:38:43;101431.40;;;
79495;BMP180;68951;53.130;18.104;2023-06-22T12:41:09;101428.40;;;
79495;BMP180;68951;53.130;18.104;2023-06-22T12:43:36;101432.80;;;
79495;BMP180;68951;53.130;18.104;2023-06-22T12:46:03;101432.00;;;
79495;BMP180;68951;53.130;18.104;2023-06-22T12:48:30;101435.40;;;
79495;BMP180;68951;53.130;18.104;2023-06-22T12:50:56;101439.40;;;
79495;BMP180;68951;53.130;18.104;2023-06-22T12:53:23;101424.00;;;
79495;BMP180;68951;53.130;18.104;2023-06-22T12:55:50;101419.40;;;
79495;BMP180;68951;53.130;18.104;2023-06-22T12:58:17;101420.60;;;
79495;BMP180;68951;53.130;18.104;2023-06-22T13:00:44;101415.00;;;
79495;BMP180;68951;53.130;18.104;2023-06-22T13:03:11;101420.00;;;
79495;BMP180;68951;53.130;18.104;2023-06-22T13:05:38;101417.20;;;
79495;BMP180;68951;53.130;18.104;2023-06-22T13:08:04;101408.60;;;
79495;BMP180;68951;53.130;18.104;2023-06-22T13:10:32;101401.80;;;
79495;BMP180;68951;53.130;18.104;2023-06-22T13:12:58;101401.20;;;
79495;BMP180;68951;53.130;18.104;2023-06-22T13:15:28;101405.80;;;
79495;BMP180;68951;53.130;18.104;2023-06-22T13:17:55;101407.60;;;
79495;BMP180;68951;53.130;18.104;2023-06-22T13:20:22;101404.00;;;
79495;BMP180;68951;53.130;18.104;2023-06-22T13:22:50;101406.80;;;
79495;BMP180;68951;53.130;18.104;2023-06-22T13:25:17;101410.80;;;
79495;BMP180;68951;53.130;18.104;2023-06-22T13:27:45;101399.00;;;
79495;BMP180;68951;53.130;18.104;2023-06-22T13:30:14;101398.80;;;
79495;BMP180;68951;53.130;18.104;2023-06-22T13:32:41;101395.40;;;
79495;BMP180;68951;53.130;18.104;2023-06-22T13:35:10;101398.60;;;
79495;BMP180;68951;53.130;18.104;2023-06-22T13:37:37;101389.20;;;
79495;BMP180;68951;53.130;18.104;2023-06-22T13:40:08;101392.20;;;
79495;BMP180;68951;53.130;18.104;2023-06-22T13:42:35;101394.60;;;
79495;BMP180;68951;53.130;18.104;2023-06-22T13:45:03;101394.00;;;
79495;BMP180;68951;53.130;18.104;2023-06-22T13:47:30;101384.80;;;
79495;BMP180;68951;53.130;18.104;2023-06-22T13:49:57;101385.40;;;
79495;BMP180;68951;53.130;18.104;2023-06-22T13:52:25;101384.60;;;
79495;BMP180;68951;53.130;18.104;2023-06-22T13:54:52;101389.80;;;
79495;BMP180;68951;53.130;18.104;2023-06-22T13:57:19;101386.40;;;
79495;BMP180;68951;53.130;18.104;2023-06-22T13:59:45;101380.40;;;
79495;BMP180;68951;53.130;18.104;2023-06-22T14:02:12;101375.80;;;
79495;BMP180;68951;53.130;18.104;2023-06-22T14:04:39;101375.00;;;
79495;BMP180;68951;53.130;18.104;2023-06-22T14:07:06;101371.20;;;
79495;BMP180;68951;53.130;18.104;2023-06-22T14:09:33;101372.00;;;
79495;BMP180;68951;53.130;18.104;2023-06-22T14:12:07;101370.40;;;
79495;BMP180;68951;53.130;18.104;2023-06-22T14:14:34;101369.20;;;
79495;BMP180;68951;53.130;18.104;2023-06-22T14:17:01;101359.60;;;
79495;BMP180;68951;53.130;18.104;2023-06-22T14:19:28;101364.80;;;
79495;BMP180;68951;53.130;18.104;2023-06-22T14:21:54;101361.00;;;
79495;BMP180;68951;53.130;18.104;2023-06-22T14:24:21;101365.80;;;
79495;BMP180;68951;53.130;18.104;2023-06-22T14:26:48;101370.80;;;
79495;BMP180;68951;53.130;18.104;2023-06-22T14:29:15;101366.80;;;
79495;BMP180;68951;53.130;18.104;2023-06-22T14:31:45;101368.60;;;
79495;BMP180;68951;53.130;18.104;2023-06-22T14:34:14;101361.60;;;
79495;BMP180;68951;53.130;18.104;2023-06-22T14:36:42;101367.60;;;
79495;BMP180;68951;53.130;18.104;2023-06-22T14:39:09;101368.60;;;
79495;BMP180;68951;53.130;18.104;2023-06-22T14:41:36;101370.00;;;
79495;BMP180;68951;53.130;18.104;2023-06-22T14:44:03;101365.80;;;
79495;BMP180;68951;53.130;18.104;2023-06-22T14:46:30;101363.00;;;
79495;BMP180;68951;53.130;18.104;2023-06-22T14:48:57;101359.40;;;
79495;BMP180;68951;53.130;18.104;2023-06-22T14:51:24;101360.00;;;
79495;BMP180;68951;53.130;18.104;2023-06-22T14:53:51;101358.80;;;
79495;BMP180;68951;53.130;18.104;2023-06-22T14:56:18;101362.40;;;
79495;BMP180;68951;53.130;18.104;2023-06-22T14:58:45;101359.00;;;